Historical Data

TheSutherlands

Weather at Humberside Airport

Current Weather from Humberside Airport

The information displayed on this page is from the METAR reports produced by Humberside Airport. Note that there are times when these are not generated.

Weather Report

Coded Weather Report: 2020/01/22 18:50 EGNJ 221850Z 24006KT 3000 BR BKN040 06/06 Q1036

Report issued: 2020/01/22 at 18:50 UTC

Wind: light breeze from the southwest (240 degrees) at 6 knots (7 mph, 11 kph, Force 2)
Visibility: 3000 metres
Weather: mist
Cloud: broken at 4000 feet
Temperature: 6 C
Dewpoint: 6 C
Humidity: 100%
Pressure: 1036 hPa